sensor_id;sensor_type;location;lat;lon;timestamp;temperature;humidity
2441;DHT22;1231;53.988;9.470;2023-02-15T00:00:39;4.10;89.40
2441;DHT22;1231;53.988;9.470;2023-02-15T00:03:10;4.10;89.40
2441;DHT22;1231;53.988;9.470;2023-02-15T00:05:41;4.10;89.30
2441;DHT22;1231;53.988;9.470;2023-02-15T00:08:11;4.10;89.10
2441;DHT22;1231;53.988;9.470;2023-02-15T00:10:42;4.00;89.00
2441;DHT22;1231;53.988;9.470;2023-02-15T00:13:12;4.00;88.80
2441;DHT22;1231;53.988;9.470;2023-02-15T00:15:43;4.00;88.60
2441;DHT22;1231;53.988;9.470;2023-02-15T00:18:14;4.00;88.30
2441;DHT22;1231;53.988;9.470;2023-02-15T00:20:44;3.90;87.80
2441;DHT22;1231;53.988;9.470;2023-02-15T00:23:15;3.80;87.30
2441;DHT22;1231;53.988;9.470;2023-02-15T00:25:45;3.60;86.70
2441;DHT22;1231;53.988;9.470;2023-02-15T00:28:16;3.40;86.60
2441;DHT22;1231;53.988;9.470;2023-02-15T00:30:46;3.30;86.60
2441;DHT22;1231;53.988;9.470;2023-02-15T00:33:17;3.10;86.80
2441;DHT22;1231;53.988;9.470;2023-02-15T00:35:47;3.10;86.70
2441;DHT22;1231;53.988;9.470;2023-02-15T00:38:18;3.00;86.60
2441;DHT22;1231;53.988;9.470;2023-02-15T00:40:56;3.00;86.70
2441;DHT22;1231;53.988;9.470;2023-02-15T00:43:28;3.00;86.80
2441;DHT22;1231;53.988;9.470;2023-02-15T00:45:59;2.90;86.90
2441;DHT22;1231;53.988;9.470;2023-02-15T00:48:30;2.90;87.10
2441;DHT22;1231;53.988;9.470;2023-02-15T00:51:00;2.90;87.10
2441;DHT22;1231;53.988;9.470;2023-02-15T00:53:31;2.90;87.20
2441;DHT22;1231;53.988;9.470;2023-02-15T00:56:02;2.90;87.40
2441;DHT22;1231;53.988;9.470;2023-02-15T00:58:33;2.80;87.50
2441;DHT22;1231;53.988;9.470;2023-02-15T01:01:09;2.80;87.60
2441;DHT22;1231;53.988;9.470;2023-02-15T01:03:40;2.80;87.80
2441;DHT22;1231;53.988;9.470;2023-02-15T01:06:15;2.80;88.10
2441;DHT22;1231;53.988;9.470;2023-02-15T01:08:47;2.80;88.40
2441;DHT22;1231;53.988;9.470;2023-02-15T01:11:20;2.80;88.60
2441;DHT22;1231;53.988;9.470;2023-02-15T01:13:56;2.80;88.60
2441;DHT22;1231;53.988;9.470;2023-02-15T01:16:28;2.70;88.60
2441;DHT22;1231;53.988;9.470;2023-02-15T01:18:58;2.70;88.60
2441;DHT22;1231;53.988;9.470;2023-02-15T01:21:29;2.60;88.60
2441;DHT22;1231;53.988;9.470;2023-02-15T01:24:01;2.60;88.60
2441;DHT22;1231;53.988;9.470;2023-02-15T01:26:32;2.60;88.80
2441;DHT22;1231;53.988;9.470;2023-02-15T01:29:02;2.60;88.90
2441;DHT22;1231;53.988;9.470;2023-02-15T01:31:33;2.50;88.90
2441;DHT22;1231;53.988;9.470;2023-02-15T01:34:03;2.50;89.00
2441;DHT22;1231;53.988;9.470;2023-02-15T01:36:34;2.50;89.30
2441;DHT22;1231;53.988;9.470;2023-02-15T01:39:05;2.60;89.40
2441;DHT22;1231;53.988;9.470;2023-02-15T01:41:37;2.50;89.40
2441;DHT22;1231;53.988;9.470;2023-02-15T01:47:22;2.60;89.60
2441;DHT22;1231;53.988;9.470;2023-02-15T01:50:23;2.60;89.70
2441;DHT22;1231;53.988;9.470;2023-02-15T01:55:32;2.60;89.70
2441;DHT22;1231;53.988;9.470;2023-02-15T01:58:03;2.60;89.90
2441;DHT22;1231;53.988;9.470;2023-02-15T02:00:35;2.60;90.00
2441;DHT22;1231;53.988;9.470;2023-02-15T02:03:05;2.60;90.00
2441;DHT22;1231;53.988;9.470;2023-02-15T02:05:37;2.70;90.00
2441;DHT22;1231;53.988;9.470;2023-02-15T02:08:09;2.70;90.20
2441;DHT22;1231;53.988;9.470;2023-02-15T02:10:40;2.70;90.20
2441;DHT22;1231;53.988;9.470;2023-02-15T02:13:10;2.70;90.20
2441;DHT22;1231;53.988;9.470;2023-02-15T02:16:00;2.70;90.30
2441;DHT22;1231;53.988;9.470;2023-02-15T02:21:48;2.80;90.20
2441;DHT22;1231;53.988;9.470;2023-02-15T02:27:24;3.00;89.90
2441;DHT22;1231;53.988;9.470;2023-02-15T02:33:07;3.00;89.70
2441;DHT22;1231;53.988;9.470;2023-02-15T02:38:57;3.10;89.70
2441;DHT22;1231;53.988;9.470;2023-02-15T02:44:26;3.20;89.40
2441;DHT22;1231;53.988;9.470;2023-02-15T02:47:14;3.20;89.20
2441;DHT22;1231;53.988;9.470;2023-02-15T02:49:46;3.20;89.20
2441;DHT22;1231;53.988;9.470;2023-02-15T02:52:42;3.20;89.20
2441;DHT22;1231;53.988;9.470;2023-02-15T02:58:06;3.20;89.40
2441;DHT22;1231;53.988;9.470;2023-02-15T03:00:44;3.20;89.30
2441;DHT22;1231;53.988;9.470;2023-02-15T03:03:23;3.20;89.20
2441;DHT22;1231;53.988;9.470;2023-02-15T03:05:58;3.20;89.30
2441;DHT22;1231;53.988;9.470;2023-02-15T03:08:36;3.20;89.10
2441;DHT22;1231;53.988;9.470;2023-02-15T03:11:07;3.20;89.00
2441;DHT22;1231;53.988;9.470;2023-02-15T03:13:39;3.20;88.90
2441;DHT22;1231;53.988;9.470;2023-02-15T03:16:12;3.20;88.80
2441;DHT22;1231;53.988;9.470;2023-02-15T03:19:05;3.20;88.80
2441;DHT22;1231;53.988;9.470;2023-02-15T03:21:47;3.20;88.80
2441;DHT22;1231;53.988;9.470;2023-02-15T03:24:32;3.20;88.70
2441;DHT22;1231;53.988;9.470;2023-02-15T03:27:14;3.20;88.60
2441;DHT22;1231;53.988;9.470;2023-02-15T03:29:52;3.20;88.60
2441;DHT22;1231;53.988;9.470;2023-02-15T03:32:25;3.30;88.50
2441;DHT22;1231;53.988;9.470;2023-02-15T03:34:58;3.20;88.50
2441;DHT22;1231;53.988;9.470;2023-02-15T03:37:48;3.20;88.30
2441;DHT22;1231;53.988;9.470;2023-02-15T03:43:49;3.20;88.10
2441;DHT22;1231;53.988;9.470;2023-02-15T03:46:49;3.10;88.20
2441;DHT22;1231;53.988;9.470;2023-02-15T03:49:36;3.10;88.30
2441;DHT22;1231;53.988;9.470;2023-02-15T03:52:11;3.10;88.20
2441;DHT22;1231;53.988;9.470;2023-02-15T03:54:43;3.10;88.10
2441;DHT22;1231;53.988;9.470;2023-02-15T04:00:26;3.00;88.00
2441;DHT22;1231;53.988;9.470;2023-02-15T04:05:50;3.00;88.10
2441;DHT22;1231;53.988;9.470;2023-02-15T04:08:21;3.00;88.10
2441;DHT22;1231;53.988;9.470;2023-02-15T04:11:11;3.00;88.10
2441;DHT22;1231;53.988;9.470;2023-02-15T04:13:42;3.00;88.20
2441;DHT22;1231;53.988;9.470;2023-02-15T04:16:13;3.00;88.30
2441;DHT22;1231;53.988;9.470;2023-02-15T04:18:44;3.00;88.30
2441;DHT22;1231;53.988;9.470;2023-02-15T04:21:33;3.00;88.10
2441;DHT22;1231;53.988;9.470;2023-02-15T04:24:22;3.00;88.00
2441;DHT22;1231;53.988;9.470;2023-02-15T04:27:11;3.00;88.00
2441;DHT22;1231;53.988;9.470;2023-02-15T04:29:42;2.90;87.90
2441;DHT22;1231;53.988;9.470;2023-02-15T04:32:12;2.80;87.90
2441;DHT22;1231;53.988;9.470;2023-02-15T04:34:43;2.80;87.90
2441;DHT22;1231;53.988;9.470;2023-02-15T04:37:14;2.80;88.20
2441;DHT22;1231;53.988;9.470;2023-02-15T04:39:44;2.80;88.30
2441;DHT22;1231;53.988;9.470;2023-02-15T04:42:15;2.80;88.30
2441;DHT22;1231;53.988;9.470;2023-02-15T04:44:46;2.80;88.40
2441;DHT22;1231;53.988;9.470;2023-02-15T04:47:16;2.80;88.40
2441;DHT22;1231;53.988;9.470;2023-02-15T04:49:47;2.90;88.40
2441;DHT22;1231;53.988;9.470;2023-02-15T04:52:18;2.90;88.40
2441;DHT22;1231;53.988;9.470;2023-02-15T04:54:48;2.90;88.50
2441;DHT22;1231;53.988;9.470;2023-02-15T04:57:19;2.90;88.50
2441;DHT22;1231;53.988;9.470;2023-02-15T04:59:49;3.00;88.50
2441;DHT22;1231;53.988;9.470;2023-02-15T05:02:20;3.00;88.50
2441;DHT22;1231;53.988;9.470;2023-02-15T05:04:51;3.00;88.40
2441;DHT22;1231;53.988;9.470;2023-02-15T05:07:21;3.00;88.40
2441;DHT22;1231;53.988;9.470;2023-02-15T05:09:52;3.10;88.40
2441;DHT22;1231;53.988;9.470;2023-02-15T05:12:22;3.10;88.30
2441;DHT22;1231;53.988;9.470;2023-02-15T05:14:53;3.10;88.20
2441;DHT22;1231;53.988;9.470;2023-02-15T05:17:24;3.10;88.20
2441;DHT22;1231;53.988;9.470;2023-02-15T05:19:54;3.10;88.20
2441;DHT22;1231;53.988;9.470;2023-02-15T05:22:25;3.10;88.30
2441;DHT22;1231;53.988;9.470;2023-02-15T05:24:55;3.10;88.30
2441;DHT22;1231;53.988;9.470;2023-02-15T05:27:45;3.10;88.30
2441;DHT22;1231;53.988;9.470;2023-02-15T05:30:34;3.20;88.30
2441;DHT22;1231;53.988;9.470;2023-02-15T05:33:05;3.20;88.20
2441;DHT22;1231;53.988;9.470;2023-02-15T05:35:35;3.20;88.30
2441;DHT22;1231;53.988;9.470;2023-02-15T05:38:06;3.20;88.30
2441;DHT22;1231;53.988;9.470;2023-02-15T05:40:37;3.20;88.20
2441;DHT22;1231;53.988;9.470;2023-02-15T05:43:07;3.20;88.30
2441;DHT22;1231;53.988;9.470;2023-02-15T05:45:38;3.30;88.20
2441;DHT22;1231;53.988;9.470;2023-02-15T05:48:08;3.30;88.20
2441;DHT22;1231;53.988;9.470;2023-02-15T05:50:39;3.30;88.20
2441;DHT22;1231;53.988;9.470;2023-02-15T05:53:10;3.30;88.10
2441;DHT22;1231;53.988;9.470;2023-02-15T05:55:40;3.30;88.10
2441;DHT22;1231;53.988;9.470;2023-02-15T05:58:11;3.30;87.90
2441;DHT22;1231;53.988;9.470;2023-02-15T06:00:42;3.30;87.90
2441;DHT22;1231;53.988;9.470;2023-02-15T06:03:12;3.30;87.90
2441;DHT22;1231;53.988;9.470;2023-02-15T06:05:43;3.30;87.80
2441;DHT22;1231;53.988;9.470;2023-02-15T06:08:14;3.20;87.90
2441;DHT22;1231;53.988;9.470;2023-02-15T06:10:47;3.30;87.90
2441;DHT22;1231;53.988;9.470;2023-02-15T06:13:18;3.20;87.90
2441;DHT22;1231;53.988;9.470;2023-02-15T06:15:49;3.30;88.10
2441;DHT22;1231;53.988;9.470;2023-02-15T06:18:19;3.30;87.90
2441;DHT22;1231;53.988;9.470;2023-02-15T06:20:50;3.30;87.90
2441;DHT22;1231;53.988;9.470;2023-02-15T06:23:21;3.30;87.90
2441;DHT22;1231;53.988;9.470;2023-02-15T06:25:51;3.30;87.80
2441;DHT22;1231;53.988;9.470;2023-02-15T06:28:22;3.30;87.80
2441;DHT22;1231;53.988;9.470;2023-02-15T06:30:52;3.30;87.80
2441;DHT22;1231;53.988;9.470;2023-02-15T06:33:23;3.30;87.80
2441;DHT22;1231;53.988;9.470;2023-02-15T06:35:54;3.30;87.80
2441;DHT22;1231;53.988;9.470;2023-02-15T06:38:24;3.30;87.70
2441;DHT22;1231;53.988;9.470;2023-02-15T06:40:55;3.30;87.60
2441;DHT22;1231;53.988;9.470;2023-02-15T06:43:25;3.20;87.90
2441;DHT22;1231;53.988;9.470;2023-02-15T06:45:56;3.20;88.20
2441;DHT22;1231;53.988;9.470;2023-02-15T06:48:27;3.30;88.20
2441;DHT22;1231;53.988;9.470;2023-02-15T06:50:57;3.30;88.10
2441;DHT22;1231;53.988;9.470;2023-02-15T06:53:28;3.30;88.10
2441;DHT22;1231;53.988;9.470;2023-02-15T06:56:03;3.30;87.90
2441;DHT22;1231;53.988;9.470;2023-02-15T06:58:37;3.30;87.90
2441;DHT22;1231;53.988;9.470;2023-02-15T07:01:09;3.30;87.80
2441;DHT22;1231;53.988;9.470;2023-02-15T07:03:39;3.30;87.80
2441;DHT22;1231;53.988;9.470;2023-02-15T07:06:10;3.30;87.70
2441;DHT22;1231;53.988;9.470;2023-02-15T07:08:41;3.30;87.70
2441;DHT22;1231;53.988;9.470;2023-02-15T07:11:12;3.30;87.70
2441;DHT22;1231;53.988;9.470;2023-02-15T07:14:01;3.30;87.60
2441;DHT22;1231;53.988;9.470;2023-02-15T07:16:31;3.30;87.50
2441;DHT22;1231;53.988;9.470;2023-02-15T07:19:02;3.20;87.40
2441;DHT22;1231;53.988;9.470;2023-02-15T07:21:34;3.20;87.50
2441;DHT22;1231;53.988;9.470;2023-02-15T07:24:05;3.20;87.60
2441;DHT22;1231;53.988;9.470;2023-02-15T07:26:35;3.20;87.70
2441;DHT22;1231;53.988;9.470;2023-02-15T07:29:06;3.20;87.70
2441;DHT22;1231;53.988;9.470;2023-02-15T07:31:36;3.20;87.70
2441;DHT22;1231;53.988;9.470;2023-02-15T07:34:07;3.20;87.70
2441;DHT22;1231;53.988;9.470;2023-02-15T07:36:37;3.20;87.80
2441;DHT22;1231;53.988;9.470;2023-02-15T07:39:08;3.20;87.70
2441;DHT22;1231;53.988;9.470;2023-02-15T07:41:39;3.20;87.80
2441;DHT22;1231;53.988;9.470;2023-02-15T07:44:14;3.20;87.90
2441;DHT22;1231;53.988;9.470;2023-02-15T07:46:45;3.20;87.80
2441;DHT22;1231;53.988;9.470;2023-02-15T07:49:15;3.20;87.80
2441;DHT22;1231;53.988;9.470;2023-02-15T07:51:46;3.20;87.80
2441;DHT22;1231;53.988;9.470;2023-02-15T07:54:16;3.30;87.80
2441;DHT22;1231;53.988;9.470;2023-02-15T07:56:47;3.40;87.80
2441;DHT22;1231;53.988;9.470;2023-02-15T07:59:18;3.40;87.90
2441;DHT22;1231;53.988;9.470;2023-02-15T08:01:48;3.40;87.80
2441;DHT22;1231;53.988;9.470;2023-02-15T08:04:20;3.50;87.80
2441;DHT22;1231;53.988;9.470;2023-02-15T08:06:54;3.40;87.60
2441;DHT22;1231;53.988;9.470;2023-02-15T08:09:25;3.50;87.80
2441;DHT22;1231;53.988;9.470;2023-02-15T08:11:55;3.50;87.80
2441;DHT22;1231;53.988;9.470;2023-02-15T08:14:27;3.50;87.50
2441;DHT22;1231;53.988;9.470;2023-02-15T08:16:59;3.60;87.70
2441;DHT22;1231;53.988;9.470;2023-02-15T08:19:35;3.70;87.80
2441;DHT22;1231;53.988;9.470;2023-02-15T08:22:10;3.80;88.00
2441;DHT22;1231;53.988;9.470;2023-02-15T08:24:42;3.90;88.00
2441;DHT22;1231;53.988;9.470;2023-02-15T08:27:12;4.00;87.90
2441;DHT22;1231;53.988;9.470;2023-02-15T08:29:43;4.10;88.00
2441;DHT22;1231;53.988;9.470;2023-02-15T08:32:13;4.20;88.10
2441;DHT22;1231;53.988;9.470;2023-02-15T08:34:44;4.30;88.10
2441;DHT22;1231;53.988;9.470;2023-02-15T08:37:15;4.40;88.10
2441;DHT22;1231;53.988;9.470;2023-02-15T08:39:45;4.50;87.90
2441;DHT22;1231;53.988;9.470;2023-02-15T08:42:16;4.60;87.80
2441;DHT22;1231;53.988;9.470;2023-02-15T08:44:46;4.70;87.70
2441;DHT22;1231;53.988;9.470;2023-02-15T08:47:17;4.70;87.60
2441;DHT22;1231;53.988;9.470;2023-02-15T08:49:48;4.80;87.50
2441;DHT22;1231;53.988;9.470;2023-02-15T08:52:18;4.90;87.30
2441;DHT22;1231;53.988;9.470;2023-02-15T08:54:49;4.90;87.20
2441;DHT22;1231;53.988;9.470;2023-02-15T08:57:19;5.00;87.20
2441;DHT22;1231;53.988;9.470;2023-02-15T08:59:50;5.10;87.00
2441;DHT22;1231;53.988;9.470;2023-02-15T09:02:21;5.10;87.10
2441;DHT22;1231;53.988;9.470;2023-02-15T09:04:51;5.10;87.10
2441;DHT22;1231;53.988;9.470;2023-02-15T09:07:23;5.20;86.90
2441;DHT22;1231;53.988;9.470;2023-02-15T09:09:53;5.20;86.80
2441;DHT22;1231;53.988;9.470;2023-02-15T09:12:24;5.20;86.50
2441;DHT22;1231;53.988;9.470;2023-02-15T09:14:54;5.20;86.60
2441;DHT22;1231;53.988;9.470;2023-02-15T09:17:25;5.30;86.60
2441;DHT22;1231;53.988;9.470;2023-02-15T09:19:56;5.30;86.60
2441;DHT22;1231;53.988;9.470;2023-02-15T09:22:26;5.30;86.50
2441;DHT22;1231;53.988;9.470;2023-02-15T09:24:57;5.30;86.50
2441;DHT22;1231;53.988;9.470;2023-02-15T09:27:28;5.40;86.40
2441;DHT22;1231;53.988;9.470;2023-02-15T09:29:59;5.30;86.10
2441;DHT22;1231;53.988;9.470;2023-02-15T09:32:30;5.40;86.20
2441;DHT22;1231;53.988;9.470;2023-02-15T09:35:00;5.50;86.20
2441;DHT22;1231;53.988;9.470;2023-02-15T09:37:31;5.50;86.10
2441;DHT22;1231;53.988;9.470;2023-02-15T09:40:02;5.60;86.00
2441;DHT22;1231;53.988;9.470;2023-02-15T09:45:30;5.70;85.90
2441;DHT22;1231;53.988;9.470;2023-02-15T09:48:40;5.70;85.80
2441;DHT22;1231;53.988;9.470;2023-02-15T09:51:33;5.80;85.90
2441;DHT22;1231;53.988;9.470;2023-02-15T09:54:29;5.90;86.00
2441;DHT22;1231;53.988;9.470;2023-02-15T10:00:08;6.10;85.80
2441;DHT22;1231;53.988;9.470;2023-02-15T10:02:56;6.20;85.90
2441;DHT22;1231;53.988;9.470;2023-02-15T10:11:56;6.50;85.70
2441;DHT22;1231;53.988;9.470;2023-02-15T10:20:28;6.60;84.80
2441;DHT22;1231;53.988;9.470;2023-02-15T10:31:39;6.80;84.90
2441;DHT22;1231;53.988;9.470;2023-02-15T10:34:25;6.90;84.80
2441;DHT22;1231;53.988;9.470;2023-02-15T10:40:11;7.10;84.80
2441;DHT22;1231;53.988;9.470;2023-02-15T10:45:49;7.20;84.60
2441;DHT22;1231;53.988;9.470;2023-02-15T10:51:04;7.40;84.70
2441;DHT22;1231;53.988;9.470;2023-02-15T10:56:58;7.50;84.00
2441;DHT22;1231;53.988;9.470;2023-02-15T11:04:58;7.70;83.60
2441;DHT22;1231;53.988;9.470;2023-02-15T11:07:37;7.70;83.40
2441;DHT22;1231;53.988;9.470;2023-02-15T11:10:46;7.70;83.40
2441;DHT22;1231;53.988;9.470;2023-02-15T11:13:20;7.80;83.40
2441;DHT22;1231;53.988;9.470;2023-02-15T11:16:04;7.80;83.20
2441;DHT22;1231;53.988;9.470;2023-02-15T11:18:55;7.80;82.80
2441;DHT22;1231;53.988;9.470;2023-02-15T11:24:00;7.80;82.90
2441;DHT22;1231;53.988;9.470;2023-02-15T11:26:43;7.80;83.20
2441;DHT22;1231;53.988;9.470;2023-02-15T11:29:29;7.90;83.10
2441;DHT22;1231;53.988;9.470;2023-02-15T11:32:12;7.90;83.10
2441;DHT22;1231;53.988;9.470;2023-02-15T11:37:50;8.00;82.80
2441;DHT22;1231;53.988;9.470;2023-02-15T11:40:31;8.00;82.40
2441;DHT22;1231;53.988;9.470;2023-02-15T11:43:13;7.90;81.90
2441;DHT22;1231;53.988;9.470;2023-02-15T11:45:45;7.90;82.20
2441;DHT22;1231;53.988;9.470;2023-02-15T11:48:16;7.90;82.40
2441;DHT22;1231;53.988;9.470;2023-02-15T11:50:48;7.90;82.50
2441;DHT22;1231;53.988;9.470;2023-02-15T11:53:21;8.00;82.60
2441;DHT22;1231;53.988;9.470;2023-02-15T11:55:55;8.00;82.60
2441;DHT22;1231;53.988;9.470;2023-02-15T12:01:32;8.10;82.20
2441;DHT22;1231;53.988;9.470;2023-02-15T12:04:38;8.10;82.00
2441;DHT22;1231;53.988;9.470;2023-02-15T12:07:17;8.10;82.10
2441;DHT22;1231;53.988;9.470;2023-02-15T12:10:10;8.10;82.20
2441;DHT22;1231;53.988;9.470;2023-02-15T12:12:44;8.10;82.20
2441;DHT22;1231;53.988;9.470;2023-02-15T12:15:30;8.10;81.80
2441;DHT22;1231;53.988;9.470;2023-02-15T12:18:01;8.10;81.90
2441;DHT22;1231;53.988;9.470;2023-02-15T12:20:32;8.10;82.10
2441;DHT22;1231;53.988;9.470;2023-02-15T12:23:10;8.10;82.10
2441;DHT22;1231;53.988;9.470;2023-02-15T12:25:51;8.10;82.10
2441;DHT22;1231;53.988;9.470;2023-02-15T12:28:37;8.10;82.20
2441;DHT22;1231;53.988;9.470;2023-02-15T12:31:30;8.10;82.50
2441;DHT22;1231;53.988;9.470;2023-02-15T12:34:09;8.20;82.60
2441;DHT22;1231;53.988;9.470;2023-02-15T12:36:47;8.30;82.70
2441;DHT22;1231;53.988;9.470;2023-02-15T12:39:26;8.30;82.60
2441;DHT22;1231;53.988;9.470;2023-02-15T12:42:02;8.40;82.70
2441;DHT22;1231;53.988;9.470;2023-02-15T12:44:35;8.40;82.80
2441;DHT22;1231;53.988;9.470;2023-02-15T12:52:35;8.60;82.60
2441;DHT22;1231;53.988;9.470;2023-02-15T12:55:26;8.60;82.70
2441;DHT22;1231;53.988;9.470;2023-02-15T13:00:37;8.70;82.60
2441;DHT22;1231;53.988;9.470;2023-02-15T13:03:16;8.70;82.30
2441;DHT22;1231;53.988;9.470;2023-02-15T13:05:55;8.70;82.10
2441;DHT22;1231;53.988;9.470;2023-02-15T13:08:31;8.70;82.00
2441;DHT22;1231;53.988;9.470;2023-02-15T13:11:06;8.70;81.90
2441;DHT22;1231;53.988;9.470;2023-02-15T13:13:53;8.70;82.00
2441;DHT22;1231;53.988;9.470;2023-02-15T13:16:32;8.60;81.90
2441;DHT22;1231;53.988;9.470;2023-02-15T13:19:18;8.60;82.00
2441;DHT22;1231;53.988;9.470;2023-02-15T13:21:51;8.60;82.20
2441;DHT22;1231;53.988;9.470;2023-02-15T13:24:46;8.70;82.00
2441;DHT22;1231;53.988;9.470;2023-02-15T13:27:23;8.70;82.00
2441;DHT22;1231;53.988;9.470;2023-02-15T13:29:57;8.70;82.00
2441;DHT22;1231;53.988;9.470;2023-02-15T13:32:38;8.70;82.10
2441;DHT22;1231;53.988;9.470;2023-02-15T13:35:15;8.70;82.20
2441;DHT22;1231;53.988;9.470;2023-02-15T13:38:15;8.70;82.00
2441;DHT22;1231;53.988;9.470;2023-02-15T13:40:55;8.60;81.90
2441;DHT22;1231;53.988;9.470;2023-02-15T13:49:24;8.50;81.80
2441;DHT22;1231;53.988;9.470;2023-02-15T13:52:23;8.50;81.90
2441;DHT22;1231;53.988;9.470;2023-02-15T13:55:14;8.50;82.10
2441;DHT22;1231;53.988;9.470;2023-02-15T13:57:54;8.60;82.20
2441;DHT22;1231;53.988;9.470;2023-02-15T14:00:43;8.70;82.40
2441;DHT22;1231;53.988;9.470;2023-02-15T14:06:15;8.70;82.10
2441;DHT22;1231;53.988;9.470;2023-02-15T14:11:42;8.50;82.10
2441;DHT22;1231;53.988;9.470;2023-02-15T14:17:14;8.30;82.10
2441;DHT22;1231;53.988;9.470;2023-02-15T14:20:07;8.20;82.00
2441;DHT22;1231;53.988;9.470;2023-02-15T14:22:45;8.10;82.10
2441;DHT22;1231;53.988;9.470;2023-02-15T14:25:41;8.10;82.10
2441;DHT22;1231;53.988;9.470;2023-02-15T14:28:26;8.00;82.50
2441;DHT22;1231;53.988;9.470;2023-02-15T14:31:02;8.00;82.70
2441;DHT22;1231;53.988;9.470;2023-02-15T14:33:36;8.00;82.70
2441;DHT22;1231;53.988;9.470;2023-02-15T14:36:12;7.90;82.70
2441;DHT22;1231;53.988;9.470;2023-02-15T14:39:07;7.90;82.80
2441;DHT22;1231;53.988;9.470;2023-02-15T14:42:09;7.90;82.90
2441;DHT22;1231;53.988;9.470;2023-02-15T14:45:34;7.90;83.20
2441;DHT22;1231;53.988;9.470;2023-02-15T14:47:42;7.90;83.30
2441;DHT22;1231;53.988;9.470;2023-02-15T14:50:37;8.00;83.40
2441;DHT22;1231;53.988;9.470;2023-02-15T15:01:29;8.10;83.60
2441;DHT22;1231;53.988;9.470;2023-02-15T15:04:07;8.10;83.60
2441;DHT22;1231;53.988;9.470;2023-02-15T15:06:42;8.10;83.40
2441;DHT22;1231;53.988;9.470;2023-02-15T15:09:22;8.10;83.40
2441;DHT22;1231;53.988;9.470;2023-02-15T15:12:13;8.10;83.20
2441;DHT22;1231;53.988;9.470;2023-02-15T15:14:44;8.00;83.30
2441;DHT22;1231;53.988;9.470;2023-02-15T15:22:37;8.00;83.30
2441;DHT22;1231;53.988;9.470;2023-02-15T15:28:01;7.90;83.20
2441;DHT22;1231;53.988;9.470;2023-02-15T15:33:27;7.80;83.40
2441;DHT22;1231;53.988;9.470;2023-02-15T15:36:24;7.70;83.50
2441;DHT22;1231;53.988;9.470;2023-02-15T15:45:19;7.60;83.50
2441;DHT22;1231;53.988;9.470;2023-02-15T15:50:57;7.50;83.90
2441;DHT22;1231;53.988;9.470;2023-02-15T15:53:32;7.40;84.00
2441;DHT22;1231;53.988;9.470;2023-02-15T15:56:08;7.40;84.00
2441;DHT22;1231;53.988;9.470;2023-02-15T15:58:44;7.30;83.90
2441;DHT22;1231;53.988;9.470;2023-02-15T16:01:15;7.20;83.80
2441;DHT22;1231;53.988;9.470;2023-02-15T16:03:51;7.20;83.90
2441;DHT22;1231;53.988;9.470;2023-02-15T16:06:34;7.10;84.00
2441;DHT22;1231;53.988;9.470;2023-02-15T16:09:10;7.00;84.10
2441;DHT22;1231;53.988;9.470;2023-02-15T16:11:42;7.00;84.20
2441;DHT22;1231;53.988;9.470;2023-02-15T16:14:16;6.90;84.40
2441;DHT22;1231;53.988;9.470;2023-02-15T16:16:49;6.80;84.50
2441;DHT22;1231;53.988;9.470;2023-02-15T16:19:26;6.80;84.60
2441;DHT22;1231;53.988;9.470;2023-02-15T16:21:59;6.70;84.80
2441;DHT22;1231;53.988;9.470;2023-02-15T16:24:47;6.70;85.00
2441;DHT22;1231;53.988;9.470;2023-02-15T16:27:34;6.60;85.10
2441;DHT22;1231;53.988;9.470;2023-02-15T16:33:34;6.50;85.40
2441;DHT22;1231;53.988;9.470;2023-02-15T16:36:28;6.50;85.60
2441;DHT22;1231;53.988;9.470;2023-02-15T16:41:30;6.40;85.80
2441;DHT22;1231;53.988;9.470;2023-02-15T16:44:07;6.40;85.90
2441;DHT22;1231;53.988;9.470;2023-02-15T16:46:43;6.40;86.00
2441;DHT22;1231;53.988;9.470;2023-02-15T16:49:18;6.40;86.00
2441;DHT22;1231;53.988;9.470;2023-02-15T16:51:58;6.40;86.00
2441;DHT22;1231;53.988;9.470;2023-02-15T16:54:31;6.30;86.10
2441;DHT22;1231;53.988;9.470;2023-02-15T16:57:02;6.30;86.10
2441;DHT22;1231;53.988;9.470;2023-02-15T16:59:41;6.30;86.10
2441;DHT22;1231;53.988;9.470;2023-02-15T17:02:18;6.30;86.20
2441;DHT22;1231;53.988;9.470;2023-02-15T17:07:48;6.30;86.40
2441;DHT22;1231;53.988;9.470;2023-02-15T17:10:34;6.30;86.50
2441;DHT22;1231;53.988;9.470;2023-02-15T17:13:16;6.30;86.60
2441;DHT22;1231;53.988;9.470;2023-02-15T17:18:39;6.20;86.60
2441;DHT22;1231;53.988;9.470;2023-02-15T17:21:17;6.20;86.60
2441;DHT22;1231;53.988;9.470;2023-02-15T17:23:50;6.20;86.50
2441;DHT22;1231;53.988;9.470;2023-02-15T17:26:27;6.20;86.50
2441;DHT22;1231;53.988;9.470;2023-02-15T17:29:02;6.10;86.50
2441;DHT22;1231;53.988;9.470;2023-02-15T17:31:40;6.10;86.50
2441;DHT22;1231;53.988;9.470;2023-02-15T17:37:24;6.00;86.50
2441;DHT22;1231;53.988;9.470;2023-02-15T17:39:57;6.00;86.60
2441;DHT22;1231;53.988;9.470;2023-02-15T17:42:28;5.90;86.60
2441;DHT22;1231;53.988;9.470;2023-02-15T17:44:59;5.90;86.70
2441;DHT22;1231;53.988;9.470;2023-02-15T17:47:30;5.90;86.70
2441;DHT22;1231;53.988;9.470;2023-02-15T17:50:04;5.80;86.90
2441;DHT22;1231;53.988;9.470;2023-02-15T17:52:35;5.80;87.00
2441;DHT22;1231;53.988;9.470;2023-02-15T17:55:16;5.80;87.00
2441;DHT22;1231;53.988;9.470;2023-02-15T17:58:08;5.80;87.00
2441;DHT22;1231;53.988;9.470;2023-02-15T18:00:44;5.70;86.90
2441;DHT22;1231;53.988;9.470;2023-02-15T18:03:50;5.70;87.10
2441;DHT22;1231;53.988;9.470;2023-02-15T18:06:42;5.70;87.10
2441;DHT22;1231;53.988;9.470;2023-02-15T18:09:31;5.60;87.10
2441;DHT22;1231;53.988;9.470;2023-02-15T18:12:22;5.60;87.10
2441;DHT22;1231;53.988;9.470;2023-02-15T18:14:54;5.60;87.30
2441;DHT22;1231;53.988;9.470;2023-02-15T18:17:41;5.50;87.40
2441;DHT22;1231;53.988;9.470;2023-02-15T18:20:21;5.50;87.50
2441;DHT22;1231;53.988;9.470;2023-02-15T18:22:54;5.50;87.40
2441;DHT22;1231;53.988;9.470;2023-02-15T18:25:24;5.50;87.40
2441;DHT22;1231;53.988;9.470;2023-02-15T18:27:55;5.50;87.40
2441;DHT22;1231;53.988;9.470;2023-02-15T18:30:26;5.50;87.50
2441;DHT22;1231;53.988;9.470;2023-02-15T18:32:57;5.50;87.50
2441;DHT22;1231;53.988;9.470;2023-02-15T18:35:30;5.50;87.60
2441;DHT22;1231;53.988;9.470;2023-02-15T18:38:01;5.50;87.60
2441;DHT22;1231;53.988;9.470;2023-02-15T18:40:32;5.50;87.60
2441;DHT22;1231;53.988;9.470;2023-02-15T18:43:03;5.50;87.60
2441;DHT22;1231;53.988;9.470;2023-02-15T18:45:33;5.50;87.50
2441;DHT22;1231;53.988;9.470;2023-02-15T18:48:06;5.50;87.40
2441;DHT22;1231;53.988;9.470;2023-02-15T18:50:39;5.40;87.60
2441;DHT22;1231;53.988;9.470;2023-02-15T18:53:18;5.40;87.60
2441;DHT22;1231;53.988;9.470;2023-02-15T18:55:49;5.40;87.60
2441;DHT22;1231;53.988;9.470;2023-02-15T18:58:21;5.40;87.60
2441;DHT22;1231;53.988;9.470;2023-02-15T19:00:53;5.40;87.70
2441;DHT22;1231;53.988;9.470;2023-02-15T19:03:24;5.30;87.70
2441;DHT22;1231;53.988;9.470;2023-02-15T19:05:54;5.30;87.60
2441;DHT22;1231;53.988;9.470;2023-02-15T19:08:25;5.30;87.60
2441;DHT22;1231;53.988;9.470;2023-02-15T19:10:55;5.30;87.50
2441;DHT22;1231;53.988;9.470;2023-02-15T19:13:27;5.30;87.50
2441;DHT22;1231;53.988;9.470;2023-02-15T19:15:57;5.20;87.40
2441;DHT22;1231;53.988;9.470;2023-02-15T19:18:29;5.20;87.50
2441;DHT22;1231;53.988;9.470;2023-02-15T19:20:59;5.20;87.40
2441;DHT22;1231;53.988;9.470;2023-02-15T19:23:30;5.20;87.40
2441;DHT22;1231;53.988;9.470;2023-02-15T19:26:03;5.10;87.30
2441;DHT22;1231;53.988;9.470;2023-02-15T19:28:35;5.10;87.20
2441;DHT22;1231;53.988;9.470;2023-02-15T19:31:10;5.10;87.30
2441;DHT22;1231;53.988;9.470;2023-02-15T19:33:41;5.00;87.30
2441;DHT22;1231;53.988;9.470;2023-02-15T19:36:16;5.00;87.40
2441;DHT22;1231;53.988;9.470;2023-02-15T19:38:49;5.00;87.30
2441;DHT22;1231;53.988;9.470;2023-02-15T19:41:28;4.90;87.30
2441;DHT22;1231;53.988;9.470;2023-02-15T19:43:59;4.90;87.20